sensor_id;sensor_type;location;lat;lon;timestamp;P1;durP1;ratioP1;P2;durP2;ratioP2
3070;SDS011;1546;47.208;9.038;2022-10-31T00:02:03;13.75;;;2.53;;
3070;SDS011;1546;47.208;9.038;2022-10-31T00:04:30;10.15;;;2.20;;
3070;SDS011;1546;47.208;9.038;2022-10-31T00:06:57;13.15;;;3.22;;
3070;SDS011;1546;47.208;9.038;2022-10-31T00:09:24;9.40;;;3.05;;
3070;SDS011;1546;47.208;9.038;2022-10-31T00:11:51;10.70;;;3.17;;
3070;SDS011;1546;47.208;9.038;2022-10-31T00:14:18;11.18;;;4.05;;
3070;SDS011;1546;47.208;9.038;2022-10-31T00:16:46;11.00;;;3.40;;
3070;SDS011;1546;47.208;9.038;2022-10-31T00:19:13;8.13;;;3.00;;
3070;SDS011;1546;47.208;9.038;2022-10-31T00:21:40;9.27;;;3.05;;
3070;SDS011;1546;47.208;9.038;2022-10-31T00:24:07;8.07;;;2.88;;
3070;SDS011;1546;47.208;9.038;2022-10-31T00:26:34;8.85;;;2.80;;
3070;SDS011;1546;47.208;9.038;2022-10-31T00:29:01;9.32;;;2.78;;
3070;SDS011;1546;47.208;9.038;2022-10-31T00:31:28;9.63;;;2.03;;
3070;SDS011;1546;47.208;9.038;2022-10-31T00:33:56;6.00;;;2.42;;
3070;SDS011;1546;47.208;9.038;2022-10-31T00:36:24;9.60;;;2.72;;
3070;SDS011;1546;47.208;9.038;2022-10-31T00:38:50;14.48;;;2.85;;
3070;SDS011;1546;47.208;9.038;2022-10-31T00:41:17;10.15;;;3.28;;
3070;SDS011;1546;47.208;9.038;2022-10-31T00:43:44;8.80;;;4.63;;
3070;SDS011;1546;47.208;9.038;2022-10-31T00:46:11;15.13;;;4.90;;
3070;SDS011;1546;47.208;9.038;2022-10-31T00:48:38;13.07;;;5.47;;
3070;SDS011;1546;47.208;9.038;2022-10-31T00:51:06;11.45;;;4.97;;
3070;SDS011;1546;47.208;9.038;2022-10-31T00:53:34;10.10;;;4.70;;
3070;SDS011;1546;47.208;9.038;2022-10-31T00:56:01;12.88;;;4.45;;
3070;SDS011;1546;47.208;9.038;2022-10-31T00:58:27;12.57;;;4.00;;
3070;SDS011;1546;47.208;9.038;2022-10-31T01:00:54;9.73;;;4.15;;
3070;SDS011;1546;47.208;9.038;2022-10-31T01:03:22;12.57;;;4.90;;
3070;SDS011;1546;47.208;9.038;2022-10-31T01:05:57;8.32;;;3.90;;
3070;SDS011;1546;47.208;9.038;2022-10-31T01:08:26;9.20;;;5.57;;
3070;SDS011;1546;47.208;9.038;2022-10-31T01:11:06;11.38;;;4.28;;
3070;SDS011;1546;47.208;9.038;2022-10-31T01:13:36;12.20;;;4.82;;
3070;SDS011;1546;47.208;9.038;2022-10-31T01:16:03;11.43;;;3.67;;
3070;SDS011;1546;47.208;9.038;2022-10-31T01:18:31;7.15;;;3.03;;
3070;SDS011;1546;47.208;9.038;2022-10-31T01:21:00;9.77;;;4.18;;
3070;SDS011;1546;47.208;9.038;2022-10-31T01:23:30;11.02;;;3.95;;
3070;SDS011;1546;47.208;9.038;2022-10-31T01:25:58;8.93;;;3.22;;
3070;SDS011;1546;47.208;9.038;2022-10-31T01:28:26;7.95;;;2.03;;
3070;SDS011;1546;47.208;9.038;2022-10-31T01:30:53;6.45;;;2.25;;
3070;SDS011;1546;47.208;9.038;2022-10-31T01:33:20;7.20;;;2.35;;
3070;SDS011;1546;47.208;9.038;2022-10-31T01:35:47;8.32;;;3.42;;
3070;SDS011;1546;47.208;9.038;2022-10-31T01:38:14;8.70;;;2.40;;
3070;SDS011;1546;47.208;9.038;2022-10-31T01:40:42;8.07;;;2.47;;
3070;SDS011;1546;47.208;9.038;2022-10-31T01:43:10;10.90;;;2.50;;
3070;SDS011;1546;47.208;9.038;2022-10-31T01:45:39;11.68;;;2.70;;
3070;SDS011;1546;47.208;9.038;2022-10-31T01:48:07;7.65;;;3.20;;
3070;SDS011;1546;47.208;9.038;2022-10-31T01:50:39;8.63;;;3.22;;
3070;SDS011;1546;47.208;9.038;2022-10-31T01:53:08;9.52;;;3.55;;
3070;SDS011;1546;47.208;9.038;2022-10-31T01:55:38;6.22;;;3.33;;
3070;SDS011;1546;47.208;9.038;2022-10-31T01:58:09;13.23;;;3.92;;
3070;SDS011;1546;47.208;9.038;2022-10-31T02:00:39;18.27;;;2.50;;
3070;SDS011;1546;47.208;9.038;2022-10-31T02:03:08;6.05;;;1.65;;
3070;SDS011;1546;47.208;9.038;2022-10-31T02:05:36;7.00;;;2.58;;
3070;SDS011;1546;47.208;9.038;2022-10-31T02:08:04;8.05;;;1.92;;
3070;SDS011;1546;47.208;9.038;2022-10-31T02:10:33;7.55;;;2.83;;
3070;SDS011;1546;47.208;9.038;2022-10-31T02:13:03;9.60;;;2.45;;
3070;SDS011;1546;47.208;9.038;2022-10-31T02:15:33;8.35;;;2.80;;
3070;SDS011;1546;47.208;9.038;2022-10-31T02:18:02;6.50;;;3.15;;
3070;SDS011;1546;47.208;9.038;2022-10-31T02:20:32;13.85;;;4.28;;
3070;SDS011;1546;47.208;9.038;2022-10-31T02:23:20;10.05;;;3.50;;
3070;SDS011;1546;47.208;9.038;2022-10-31T02:26:13;15.90;;;5.07;;
3070;SDS011;1546;47.208;9.038;2022-10-31T02:32:00;11.18;;;3.30;;
3070;SDS011;1546;47.208;9.038;2022-10-31T02:34:36;7.20;;;3.33;;
3070;SDS011;1546;47.208;9.038;2022-10-31T02:37:10;7.50;;;3.75;;
3070;SDS011;1546;47.208;9.038;2022-10-31T02:39:42;8.75;;;4.28;;
3070;SDS011;1546;47.208;9.038;2022-10-31T02:42:17;6.88;;;3.85;;
3070;SDS011;1546;47.208;9.038;2022-10-31T02:44:55;9.95;;;3.53;;
3070;SDS011;1546;47.208;9.038;2022-10-31T02:47:28;8.40;;;3.92;;
3070;SDS011;1546;47.208;9.038;2022-10-31T02:49:59;8.88;;;4.13;;
3070;SDS011;1546;47.208;9.038;2022-10-31T02:52:30;6.25;;;3.70;;
3070;SDS011;1546;47.208;9.038;2022-10-31T02:54:58;8.18;;;3.80;;
3070;SDS011;1546;47.208;9.038;2022-10-31T02:57:35;9.65;;;3.22;;
3070;SDS011;1546;47.208;9.038;2022-10-31T03:00:05;9.98;;;2.17;;
3070;SDS011;1546;47.208;9.038;2022-10-31T03:02:38;15.27;;;3.42;;
3070;SDS011;1546;47.208;9.038;2022-10-31T03:05:22;7.00;;;2.85;;
3070;SDS011;1546;47.208;9.038;2022-10-31T03:07:59;6.68;;;2.10;;
3070;SDS011;1546;47.208;9.038;2022-10-31T03:10:35;8.77;;;3.20;;
3070;SDS011;1546;47.208;9.038;2022-10-31T03:13:08;7.03;;;2.63;;
3070;SDS011;1546;47.208;9.038;2022-10-31T03:15:39;8.13;;;3.15;;
3070;SDS011;1546;47.208;9.038;2022-10-31T03:18:11;8.85;;;2.72;;
3070;SDS011;1546;47.208;9.038;2022-10-31T03:20:43;13.27;;;4.45;;
3070;SDS011;1546;47.208;9.038;2022-10-31T03:23:15;5.95;;;2.03;;
3070;SDS011;1546;47.208;9.038;2022-10-31T03:25:44;7.45;;;2.58;;
3070;SDS011;1546;47.208;9.038;2022-10-31T03:28:12;8.95;;;3.60;;
3070;SDS011;1546;47.208;9.038;2022-10-31T03:30:44;6.18;;;2.83;;
3070;SDS011;1546;47.208;9.038;2022-10-31T03:33:15;7.78;;;2.75;;
3070;SDS011;1546;47.208;9.038;2022-10-31T03:35:44;11.98;;;3.33;;
3070;SDS011;1546;47.208;9.038;2022-10-31T03:38:12;9.35;;;2.75;;
3070;SDS011;1546;47.208;9.038;2022-10-31T03:40:40;5.57;;;1.90;;
3070;SDS011;1546;47.208;9.038;2022-10-31T03:43:13;6.47;;;2.53;;
3070;SDS011;1546;47.208;9.038;2022-10-31T03:45:45;7.97;;;4.35;;
3070;SDS011;1546;47.208;9.038;2022-10-31T03:48:14;9.75;;;3.90;;
3070;SDS011;1546;47.208;9.038;2022-10-31T03:50:45;10.55;;;4.55;;
3070;SDS011;1546;47.208;9.038;2022-10-31T03:53:19;11.98;;;4.20;;
3070;SDS011;1546;47.208;9.038;2022-10-31T03:55:52;12.02;;;3.42;;
3070;SDS011;1546;47.208;9.038;2022-10-31T03:58:25;8.35;;;3.20;;
3070;SDS011;1546;47.208;9.038;2022-10-31T04:00:56;7.55;;;2.10;;
3070;SDS011;1546;47.208;9.038;2022-10-31T04:03:28;7.03;;;2.25;;
3070;SDS011;1546;47.208;9.038;2022-10-31T04:05:59;6.18;;;2.90;;
3070;SDS011;1546;47.208;9.038;2022-10-31T04:08:30;6.20;;;2.63;;
3070;SDS011;1546;47.208;9.038;2022-10-31T04:11:00;10.98;;;5.75;;
3070;SDS011;1546;47.208;9.038;2022-10-31T04:13:29;13.82;;;5.88;;
3070;SDS011;1546;47.208;9.038;2022-10-31T04:15:57;8.50;;;5.03;;
3070;SDS011;1546;47.208;9.038;2022-10-31T04:18:25;14.68;;;5.80;;
3070;SDS011;1546;47.208;9.038;2022-10-31T04:20:59;9.85;;;5.35;;
3070;SDS011;1546;47.208;9.038;2022-10-31T04:23:26;10.45;;;5.30;;
3070;SDS011;1546;47.208;9.038;2022-10-31T04:25:53;13.73;;;6.05;;
3070;SDS011;1546;47.208;9.038;2022-10-31T04:28:20;9.77;;;5.43;;
3070;SDS011;1546;47.208;9.038;2022-10-31T04:30:47;8.05;;;4.47;;
3070;SDS011;1546;47.208;9.038;2022-10-31T04:33:14;13.40;;;5.22;;
3070;SDS011;1546;47.208;9.038;2022-10-31T04:35:42;9.57;;;3.63;;
3070;SDS011;1546;47.208;9.038;2022-10-31T04:38:09;23.00;;;3.80;;
3070;SDS011;1546;47.208;9.038;2022-10-31T04:40:36;11.73;;;2.90;;
3070;SDS011;1546;47.208;9.038;2022-10-31T04:43:03;6.50;;;2.40;;
3070;SDS011;1546;47.208;9.038;2022-10-31T04:45:29;6.43;;;2.10;;
3070;SDS011;1546;47.208;9.038;2022-10-31T04:47:56;8.18;;;3.47;;
3070;SDS011;1546;47.208;9.038;2022-10-31T04:50:23;10.93;;;4.00;;
3070;SDS011;1546;47.208;9.038;2022-10-31T04:52:51;7.97;;;3.38;;
3070;SDS011;1546;47.208;9.038;2022-10-31T04:55:18;9.07;;;3.65;;
3070;SDS011;1546;47.208;9.038;2022-10-31T04:57:46;8.55;;;3.25;;
3070;SDS011;1546;47.208;9.038;2022-10-31T05:00:14;11.73;;;5.25;;
3070;SDS011;1546;47.208;9.038;2022-10-31T05:02:43;13.77;;;5.05;;
3070;SDS011;1546;47.208;9.038;2022-10-31T05:05:11;10.60;;;4.32;;
3070;SDS011;1546;47.208;9.038;2022-10-31T05:07:38;11.75;;;5.10;;
3070;SDS011;1546;47.208;9.038;2022-10-31T05:10:08;10.07;;;4.63;;
3070;SDS011;1546;47.208;9.038;2022-10-31T05:12:35;12.10;;;6.30;;
3070;SDS011;1546;47.208;9.038;2022-10-31T05:17:30;11.35;;;5.07;;
3070;SDS011;1546;47.208;9.038;2022-10-31T05:19:57;7.50;;;3.03;;
3070;SDS011;1546;47.208;9.038;2022-10-31T05:22:24;10.35;;;2.72;;
3070;SDS011;1546;47.208;9.038;2022-10-31T05:24:51;9.75;;;2.70;;
3070;SDS011;1546;47.208;9.038;2022-10-31T05:27:19;10.98;;;3.25;;
3070;SDS011;1546;47.208;9.038;2022-10-31T05:29:46;6.32;;;3.65;;
3070;SDS011;1546;47.208;9.038;2022-10-31T05:32:12;7.32;;;3.33;;
3070;SDS011;1546;47.208;9.038;2022-10-31T05:34:39;7.22;;;3.50;;
3070;SDS011;1546;47.208;9.038;2022-10-31T05:37:06;7.20;;;4.50;;
3070;SDS011;1546;47.208;9.038;2022-10-31T05:39:33;11.57;;;4.82;;
3070;SDS011;1546;47.208;9.038;2022-10-31T05:41:59;8.48;;;3.72;;
3070;SDS011;1546;47.208;9.038;2022-10-31T05:44:28;10.50;;;4.53;;
3070;SDS011;1546;47.208;9.038;2022-10-31T05:46:55;11.27;;;4.68;;
3070;SDS011;1546;47.208;9.038;2022-10-31T05:49:21;9.35;;;3.90;;
3070;SDS011;1546;47.208;9.038;2022-10-31T05:51:48;8.43;;;3.13;;
3070;SDS011;1546;47.208;9.038;2022-10-31T05:54:15;11.02;;;2.40;;
3070;SDS011;1546;47.208;9.038;2022-10-31T05:56:42;13.60;;;3.50;;
3070;SDS011;1546;47.208;9.038;2022-10-31T05:59:09;8.93;;;3.95;;
3070;SDS011;1546;47.208;9.038;2022-10-31T06:01:37;7.60;;;2.83;;
3070;SDS011;1546;47.208;9.038;2022-10-31T06:04:04;9.73;;;2.80;;
3070;SDS011;1546;47.208;9.038;2022-10-31T06:06:31;6.95;;;2.53;;
3070;SDS011;1546;47.208;9.038;2022-10-31T06:08:57;7.00;;;2.97;;
3070;SDS011;1546;47.208;9.038;2022-10-31T06:11:24;5.60;;;2.20;;
3070;SDS011;1546;47.208;9.038;2022-10-31T06:13:51;7.68;;;3.15;;
3070;SDS011;1546;47.208;9.038;2022-10-31T06:16:18;7.45;;;2.65;;
3070;SDS011;1546;47.208;9.038;2022-10-31T06:18:46;8.77;;;3.83;;
3070;SDS011;1546;47.208;9.038;2022-10-31T06:21:13;7.60;;;4.25;;
3070;SDS011;1546;47.208;9.038;2022-10-31T06:23:40;12.63;;;2.75;;
3070;SDS011;1546;47.208;9.038;2022-10-31T06:26:07;10.65;;;3.22;;
3070;SDS011;1546;47.208;9.038;2022-10-31T06:28:34;15.63;;;3.85;;
3070;SDS011;1546;47.208;9.038;2022-10-31T06:31:00;8.70;;;4.25;;
3070;SDS011;1546;47.208;9.038;2022-10-31T06:33:27;15.57;;;5.18;;
3070;SDS011;1546;47.208;9.038;2022-10-31T06:35:55;20.75;;;4.30;;
3070;SDS011;1546;47.208;9.038;2022-10-31T06:38:22;11.05;;;4.35;;
3070;SDS011;1546;47.208;9.038;2022-10-31T06:40:51;17.48;;;4.75;;
3070;SDS011;1546;47.208;9.038;2022-10-31T06:43:17;8.15;;;3.30;;
3070;SDS011;1546;47.208;9.038;2022-10-31T06:45:45;6.05;;;3.20;;
3070;SDS011;1546;47.208;9.038;2022-10-31T06:48:12;10.43;;;5.43;;
3070;SDS011;1546;47.208;9.038;2022-10-31T06:50:38;8.30;;;3.42;;
3070;SDS011;1546;47.208;9.038;2022-10-31T06:53:07;7.97;;;3.03;;
3070;SDS011;1546;47.208;9.038;2022-10-31T06:55:34;10.68;;;3.90;;
3070;SDS011;1546;47.208;9.038;2022-10-31T06:58:01;12.60;;;3.55;;
3070;SDS011;1546;47.208;9.038;2022-10-31T07:00:28;7.63;;;3.70;;
3070;SDS011;1546;47.208;9.038;2022-10-31T07:02:56;6.93;;;3.78;;
3070;SDS011;1546;47.208;9.038;2022-10-31T07:05:25;7.70;;;3.42;;
3070;SDS011;1546;47.208;9.038;2022-10-31T07:07:53;13.32;;;6.60;;
3070;SDS011;1546;47.208;9.038;2022-10-31T07:10:22;8.10;;;4.80;;
3070;SDS011;1546;47.208;9.038;2022-10-31T07:12:53;9.80;;;3.78;;
3070;SDS011;1546;47.208;9.038;2022-10-31T07:15:20;7.53;;;3.95;;
3070;SDS011;1546;47.208;9.038;2022-10-31T07:17:47;10.88;;;4.80;;
3070;SDS011;1546;47.208;9.038;2022-10-31T07:20:14;20.13;;;5.55;;
3070;SDS011;1546;47.208;9.038;2022-10-31T07:22:41;12.07;;;4.75;;
3070;SDS011;1546;47.208;9.038;2022-10-31T07:25:08;8.02;;;3.88;;
3070;SDS011;1546;47.208;9.038;2022-10-31T07:27:37;9.95;;;5.00;;
3070;SDS011;1546;47.208;9.038;2022-10-31T07:30:05;11.52;;;4.53;;
3070;SDS011;1546;47.208;9.038;2022-10-31T07:32:39;11.65;;;5.53;;
3070;SDS011;1546;47.208;9.038;2022-10-31T07:35:07;11.50;;;4.75;;
3070;SDS011;1546;47.208;9.038;2022-10-31T07:37:35;14.25;;;5.32;;
3070;SDS011;1546;47.208;9.038;2022-10-31T07:40:02;13.85;;;4.82;;
3070;SDS011;1546;47.208;9.038;2022-10-31T07:42:34;14.50;;;4.43;;
3070;SDS011;1546;47.208;9.038;2022-10-31T07:45:02;10.80;;;4.30;;
3070;SDS011;1546;47.208;9.038;2022-10-31T07:47:29;9.32;;;4.30;;
3070;SDS011;1546;47.208;9.038;2022-10-31T07:50:03;9.57;;;4.13;;
3070;SDS011;1546;47.208;9.038;2022-10-31T07:52:31;9.23;;;5.18;;
3070;SDS011;1546;47.208;9.038;2022-10-31T07:54:57;10.45;;;4.25;;
3070;SDS011;1546;47.208;9.038;2022-10-31T07:57:24;13.43;;;4.50;;
3070;SDS011;1546;47.208;9.038;2022-10-31T07:59:51;10.10;;;4.30;;
3070;SDS011;1546;47.208;9.038;2022-10-31T08:02:19;10.43;;;4.93;;
3070;SDS011;1546;47.208;9.038;2022-10-31T08:04:46;8.98;;;3.83;;
3070;SDS011;1546;47.208;9.038;2022-10-31T08:07:13;9.32;;;4.50;;
3070;SDS011;1546;47.208;9.038;2022-10-31T08:09:40;11.80;;;5.03;;
3070;SDS011;1546;47.208;9.038;2022-10-31T08:12:07;13.70;;;5.00;;
3070;SDS011;1546;47.208;9.038;2022-10-31T08:14:34;10.13;;;5.32;;
3070;SDS011;1546;47.208;9.038;2022-10-31T08:17:01;9.75;;;5.65;;
3070;SDS011;1546;47.208;9.038;2022-10-31T08:19:30;13.85;;;5.93;;
3070;SDS011;1546;47.208;9.038;2022-10-31T08:21:57;14.25;;;6.00;;
3070;SDS011;1546;47.208;9.038;2022-10-31T08:24:24;9.50;;;4.40;;
3070;SDS011;1546;47.208;9.038;2022-10-31T08:26:51;11.45;;;4.68;;
3070;SDS011;1546;47.208;9.038;2022-10-31T08:29:18;12.13;;;3.92;;
3070;SDS011;1546;47.208;9.038;2022-10-31T08:31:45;8.98;;;5.22;;
3070;SDS011;1546;47.208;9.038;2022-10-31T08:34:12;13.38;;;7.07;;
3070;SDS011;1546;47.208;9.038;2022-10-31T08:36:40;16.02;;;5.90;;
3070;SDS011;1546;47.208;9.038;2022-10-31T08:39:09;11.85;;;5.80;;
3070;SDS011;1546;47.208;9.038;2022-10-31T08:41:36;10.90;;;6.22;;
3070;SDS011;1546;47.208;9.038;2022-10-31T08:44:03;14.52;;;6.60;;
3070;SDS011;1546;47.208;9.038;2022-10-31T08:46:30;12.93;;;6.85;;
3070;SDS011;1546;47.208;9.038;2022-10-31T08:48:57;13.13;;;6.03;;
3070;SDS011;1546;47.208;9.038;2022-10-31T08:51:24;15.85;;;7.95;;
3070;SDS011;1546;47.208;9.038;2022-10-31T08:53:53;10.93;;;6.03;;
3070;SDS011;1546;47.208;9.038;2022-10-31T08:56:20;10.05;;;5.78;;
3070;SDS011;1546;47.208;9.038;2022-10-31T08:58:47;10.50;;;5.57;;
3070;SDS011;1546;47.208;9.038;2022-10-31T09:01:14;9.05;;;6.43;;
3070;SDS011;1546;47.208;9.038;2022-10-31T09:03:41;11.45;;;5.25;;
3070;SDS011;1546;47.208;9.038;2022-10-31T09:06:07;10.90;;;6.43;;
3070;SDS011;1546;47.208;9.038;2022-10-31T09:08:34;12.25;;;6.40;;
3070;SDS011;1546;47.208;9.038;2022-10-31T09:11:03;12.95;;;5.93;;
3070;SDS011;1546;47.208;9.038;2022-10-31T09:13:31;15.50;;;7.40;;
3070;SDS011;1546;47.208;9.038;2022-10-31T09:15:59;11.73;;;6.60;;
3070;SDS011;1546;47.208;9.038;2022-10-31T09:18:26;12.23;;;6.22;;
3070;SDS011;1546;47.208;9.038;2022-10-31T09:20:53;11.77;;;6.93;;
3070;SDS011;1546;47.208;9.038;2022-10-31T09:23:23;15.73;;;9.80;;
3070;SDS011;1546;47.208;9.038;2022-10-31T09:25:51;10.82;;;6.22;;
3070;SDS011;1546;47.208;9.038;2022-10-31T09:28:21;13.70;;;7.47;;
3070;SDS011;1546;47.208;9.038;2022-10-31T09:30:49;14.32;;;6.07;;
3070;SDS011;1546;47.208;9.038;2022-10-31T09:33:18;14.20;;;8.02;;
3070;SDS011;1546;47.208;9.038;2022-10-31T09:35:45;10.55;;;5.68;;
3070;SDS011;1546;47.208;9.038;2022-10-31T09:38:12;10.32;;;6.13;;
3070;SDS011;1546;47.208;9.038;2022-10-31T09:40:41;12.18;;;6.32;;
3070;SDS011;1546;47.208;9.038;2022-10-31T09:43:13;11.23;;;6.70;;
3070;SDS011;1546;47.208;9.038;2022-10-31T09:45:47;13.27;;;6.40;;
3070;SDS011;1546;47.208;9.038;2022-10-31T09:48:27;13.73;;;6.80;;
3070;SDS011;1546;47.208;9.038;2022-10-31T09:51:10;11.80;;;5.95;;
3070;SDS011;1546;47.208;9.038;2022-10-31T09:53:41;10.30;;;6.53;;
3070;SDS011;1546;47.208;9.038;2022-10-31T09:56:11;14.65;;;6.65;;
3070;SDS011;1546;47.208;9.038;2022-10-31T09:58:42;10.15;;;5.85;;
3070;SDS011;1546;47.208;9.038;2022-10-31T10:01:23;11.65;;;7.75;;
3070;SDS011;1546;47.208;9.038;2022-10-31T10:04:09;10.57;;;6.50;;
3070;SDS011;1546;47.208;9.038;2022-10-31T10:06:44;12.48;;;7.28;;
3070;SDS011;1546;47.208;9.038;2022-10-31T10:09:15;13.50;;;7.20;;
3070;SDS011;1546;47.208;9.038;2022-10-31T10:11:47;9.85;;;7.25;;
3070;SDS011;1546;47.208;9.038;2022-10-31T10:14:25;14.32;;;6.22;;
3070;SDS011;1546;47.208;9.038;2022-10-31T10:17:19;10.50;;;6.45;;
3070;SDS011;1546;47.208;9.038;2022-10-31T10:20:01;10.32;;;6.28;;
3070;SDS011;1546;47.208;9.038;2022-10-31T10:22:55;12.30;;;6.85;;
3070;SDS011;1546;47.208;9.038;2022-10-31T10:25:37;9.13;;;6.78;;
3070;SDS011;1546;47.208;9.038;2022-10-31T10:28:08;9.40;;;5.60;;
3070;SDS011;1546;47.208;9.038;2022-10-31T10:30:42;12.40;;;5.78;;
3070;SDS011;1546;47.208;9.038;2022-10-31T10:33:13;14.38;;;6.82;;
3070;SDS011;1546;47.208;9.038;2022-10-31T10:35:46;17.95;;;6.47;;
3070;SDS011;1546;47.208;9.038;2022-10-31T10:38:18;16.13;;;7.68;;
3070;SDS011;1546;47.208;9.038;2022-10-31T10:40:50;8.43;;;5.95;;
3070;SDS011;1546;47.208;9.038;2022-10-31T10:43:23;13.73;;;7.75;;
3070;SDS011;1546;47.208;9.038;2022-10-31T10:45:55;11.60;;;6.03;;
3070;SDS011;1546;47.208;9.038;2022-10-31T10:48:52;13.63;;;7.28;;
3070;SDS011;1546;47.208;9.038;2022-10-31T10:51:27;9.63;;;5.57;;
3070;SDS011;1546;47.208;9.038;2022-10-31T10:54:02;14.98;;;6.63;;
3070;SDS011;1546;47.208;9.038;2022-10-31T10:56:50;11.88;;;5.68;;
3070;SDS011;1546;47.208;9.038;2022-10-31T10:59:25;16.70;;;8.10;;
3070;SDS011;1546;47.208;9.038;2022-10-31T11:01:54;11.27;;;7.63;;
3070;SDS011;1546;47.208;9.038;2022-10-31T11:04:27;8.85;;;5.85;;
3070;SDS011;1546;47.208;9.038;2022-10-31T11:06:57;18.27;;;7.22;;
3070;SDS011;1546;47.208;9.038;2022-10-31T11:09:24;11.60;;;7.15;;
3070;SDS011;1546;47.208;9.038;2022-10-31T11:11:51;13.05;;;6.18;;
3070;SDS011;1546;47.208;9.038;2022-10-31T11:14:19;10.05;;;6.45;;
3070;SDS011;1546;47.208;9.038;2022-10-31T11:16:47;12.75;;;7.57;;
3070;SDS011;1546;47.208;9.038;2022-10-31T11:19:18;12.57;;;6.25;;
3070;SDS011;1546;47.208;9.038;2022-10-31T11:21:48;13.63;;;7.28;;
3070;SDS011;1546;47.208;9.038;2022-10-31T11:24:16;12.70;;;6.65;;
3070;SDS011;1546;47.208;9.038;2022-10-31T11:26:45;10.90;;;7.65;;
3070;SDS011;1546;47.208;9.038;2022-10-31T11:29:14;12.88;;;7.47;;
3070;SDS011;1546;47.208;9.038;2022-10-31T11:31:43;12.85;;;6.68;;
3070;SDS011;1546;47.208;9.038;2022-10-31T11:34:16;9.93;;;6.85;;
3070;SDS011;1546;47.208;9.038;2022-10-31T11:36:50;10.07;;;6.40;;
3070;SDS011;1546;47.208;9.038;2022-10-31T11:39:17;14.40;;;6.28;;
3070;SDS011;1546;47.208;9.038;2022-10-31T11:41:47;11.70;;;8.40;;
3070;SDS011;1546;47.208;9.038;2022-10-31T11:44:17;11.68;;;6.63;;
3070;SDS011;1546;47.208;9.038;2022-10-31T11:46:46;17.83;;;7.63;;
3070;SDS011;1546;47.208;9.038;2022-10-31T11:49:17;12.98;;;6.80;;
3070;SDS011;1546;47.208;9.038;2022-10-31T11:51:47;12.18;;;7.88;;
3070;SDS011;1546;47.208;9.038;2022-10-31T11:54:20;16.20;;;7.55;;
3070;SDS011;1546;47.208;9.038;2022-10-31T11:56:50;13.80;;;7.65;;
3070;SDS011;1546;47.208;9.038;2022-10-31T11:59:18;14.63;;;8.23;;
3070;SDS011;1546;47.208;9.038;2022-10-31T12:01:49;14.35;;;8.73;;
3070;SDS011;1546;47.208;9.038;2022-10-31T12:04:16;10.43;;;7.13;;
3070;SDS011;1546;47.208;9.038;2022-10-31T12:06:43;10.73;;;7.13;;
3070;SDS011;1546;47.208;9.038;2022-10-31T12:09:20;16.67;;;7.95;;
3070;SDS011;1546;47.208;9.038;2022-10-31T12:11:54;9.75;;;6.68;;
3070;SDS011;1546;47.208;9.038;2022-10-31T12:14:33;12.80;;;7.88;;
3070;SDS011;1546;47.208;9.038;2022-10-31T12:17:11;12.95;;;7.65;;
3070;SDS011;1546;47.208;9.038;2022-10-31T12:19:42;10.88;;;6.68;;
3070;SDS011;1546;47.208;9.038;2022-10-31T12:22:17;9.35;;;6.78;;
3070;SDS011;1546;47.208;9.038;2022-10-31T12:24:58;11.40;;;6.80;;
3070;SDS011;1546;47.208;9.038;2022-10-31T12:27:45;11.40;;;5.93;;
3070;SDS011;1546;47.208;9.038;2022-10-31T12:30:26;9.67;;;5.40;;
3070;SDS011;1546;47.208;9.038;2022-10-31T12:33:04;10.30;;;6.63;;
3070;SDS011;1546;47.208;9.038;2022-10-31T12:35:47;10.73;;;7.53;;
3070;SDS011;1546;47.208;9.038;2022-10-31T12:38:25;9.47;;;6.50;;
3070;SDS011;1546;47.208;9.038;2022-10-31T12:41:09;9.20;;;6.07;;
3070;SDS011;1546;47.208;9.038;2022-10-31T12:43:54;9.50;;;6.50;;
3070;SDS011;1546;47.208;9.038;2022-10-31T12:46:27;13.37;;;6.70;;
3070;SDS011;1546;47.208;9.038;2022-10-31T12:49:17;10.13;;;6.03;;
3070;SDS011;1546;47.208;9.038;2022-10-31T12:51:57;10.97;;;6.87;;
3070;SDS011;1546;47.208;9.038;2022-10-31T12:54:40;11.47;;;6.60;;
3070;SDS011;1546;47.208;9.038;2022-10-31T12:57:21;9.33;;;5.37;;
3070;SDS011;1546;47.208;9.038;2022-10-31T12:59:53;13.73;;;5.40;;
3070;SDS011;1546;47.208;9.038;2022-10-31T13:02:27;13.80;;;6.60;;
3070;SDS011;1546;47.208;9.038;2022-10-31T13:04:58;10.40;;;6.30;;
3070;SDS011;1546;47.208;9.038;2022-10-31T13:07:29;9.40;;;5.17;;
3070;SDS011;1546;47.208;9.038;2022-10-31T13:10:03;10.40;;;5.40;;
3070;SDS011;1546;47.208;9.038;2022-10-31T13:12:42;8.13;;;5.70;;
3070;SDS011;1546;47.208;9.038;2022-10-31T13:15:12;14.80;;;6.43;;
3070;SDS011;1546;47.208;9.038;2022-10-31T13:17:44;11.33;;;5.60;;
3070;SDS011;1546;47.208;9.038;2022-10-31T13:20:16;12.13;;;6.70;;
3070;SDS011;1546;47.208;9.038;2022-10-31T13:22:48;11.00;;;5.80;;
3070;SDS011;1546;47.208;9.038;2022-10-31T13:25:19;9.70;;;5.43;;
3070;SDS011;1546;47.208;9.038;2022-10-31T13:27:52;10.87;;;5.53;;
3070;SDS011;1546;47.208;9.038;2022-10-31T13:30:22;9.67;;;5.20;;
3070;SDS011;1546;47.208;9.038;2022-10-31T13:32:52;9.80;;;5.30;;
3070;SDS011;1546;47.208;9.038;2022-10-31T13:35:26;12.47;;;5.80;;
3070;SDS011;1546;47.208;9.038;2022-10-31T13:38:01;11.40;;;4.67;;
3070;SDS011;1546;47.208;9.038;2022-10-31T13:40:38;9.80;;;5.80;;
3070;SDS011;1546;47.208;9.038;2022-10-31T13:43:13;9.57;;;5.30;;
3070;SDS011;1546;47.208;9.038;2022-10-31T13:45:49;11.23;;;5.47;;
3070;SDS011;1546;47.208;9.038;2022-10-31T13:48:18;8.90;;;5.00;;
3070;SDS011;1546;47.208;9.038;2022-10-31T13:50:58;10.37;;;5.20;;
3070;SDS011;1546;47.208;9.038;2022-10-31T13:53:35;13.07;;;7.50;;
3070;SDS011;1546;47.208;9.038;2022-10-31T13:56:04;11.63;;;6.07;;
3070;SDS011;1546;47.208;9.038;2022-10-31T13:58:42;12.40;;;5.10;;
3070;SDS011;1546;47.208;9.038;2022-10-31T14:01:22;9.10;;;4.93;;
3070;SDS011;1546;47.208;9.038;2022-10-31T14:03:55;10.70;;;5.70;;
3070;SDS011;1546;47.208;9.038;2022-10-31T14:06:34;12.73;;;6.93;;
3070;SDS011;1546;47.208;9.038;2022-10-31T14:09:05;11.73;;;6.10;;
3070;SDS011;1546;47.208;9.038;2022-10-31T14:11:41;11.47;;;5.50;;
3070;SDS011;1546;47.208;9.038;2022-10-31T14:14:14;11.50;;;5.80;;
3070;SDS011;1546;47.208;9.038;2022-10-31T14:16:42;11.03;;;5.73;;
3070;SDS011;1546;47.208;9.038;2022-10-31T14:19:15;14.17;;;5.67;;
3070;SDS011;1546;47.208;9.038;2022-10-31T14:21:44;8.30;;;4.73;;
3070;SDS011;1546;47.208;9.038;2022-10-31T14:24:13;8.47;;;5.40;;
3070;SDS011;1546;47.208;9.038;2022-10-31T14:26:51;11.83;;;5.70;;
3070;SDS011;1546;47.208;9.038;2022-10-31T14:29:24;15.47;;;6.13;;
3070;SDS011;1546;47.208;9.038;2022-10-31T14:31:54;14.53;;;6.80;;
3070;SDS011;1546;47.208;9.038;2022-10-31T14:34:24;12.27;;;6.10;;
3070;SDS011;1546;47.208;9.038;2022-10-31T14:37:00;10.33;;;5.30;;
3070;SDS011;1546;47.208;9.038;2022-10-31T14:39:40;13.50;;;6.30;;
3070;SDS011;1546;47.208;9.038;2022-10-31T14:42:19;9.20;;;5.57;;
3070;SDS011;1546;47.208;9.038;2022-10-31T14:45:12;10.77;;;7.20;;
3070;SDS011;1546;47.208;9.038;2022-10-31T14:47:49;11.57;;;5.90;;
3070;SDS011;1546;47.208;9.038;2022-10-31T14:50:29;10.00;;;6.13;;
3070;SDS011;1546;47.208;9.038;2022-10-31T14:53:04;11.20;;;5.93;;
3070;SDS011;1546;47.208;9.038;2022-10-31T14:55:34;9.63;;;6.47;;
3070;SDS011;1546;47.208;9.038;2022-10-31T14:58:09;12.27;;;5.60;;
3070;SDS011;1546;47.208;9.038;2022-10-31T15:00:42;12.47;;;6.37;;
3070;SDS011;1546;47.208;9.038;2022-10-31T15:03:11;12.93;;;6.37;;
3070;SDS011;1546;47.208;9.038;2022-10-31T15:05:41;15.30;;;7.50;;
3070;SDS011;1546;47.208;9.038;2022-10-31T15:08:14;9.60;;;6.40;;
3070;SDS011;1546;47.208;9.038;2022-10-31T15:10:53;15.63;;;6.83;;
3070;SDS011;1546;47.208;9.038;2022-10-31T15:13:21;15.10;;;7.27;;
3070;SDS011;1546;47.208;9.038;2022-10-31T15:15:49;14.43;;;6.57;;
3070;SDS011;1546;47.208;9.038;2022-10-31T15:18:20;18.08;;;6.20;;
3070;SDS011;1546;47.208;9.038;2022-10-31T15:20:49;12.02;;;7.03;;
3070;SDS011;1546;47.208;9.038;2022-10-31T15:23:20;15.80;;;8.15;;
3070;SDS011;1546;47.208;9.038;2022-10-31T15:25:49;10.98;;;7.10;;
3070;SDS011;1546;47.208;9.038;2022-10-31T15:28:20;12.27;;;7.60;;
3070;SDS011;1546;47.208;9.038;2022-10-31T15:30:51;11.90;;;7.35;;
3070;SDS011;1546;47.208;9.038;2022-10-31T15:33:22;14.60;;;8.05;;
3070;SDS011;1546;47.208;9.038;2022-10-31T15:35:54;13.90;;;6.45;;